Time;durP1;ratioP1;P1;durP2;ratioP2;P2;SDS_P1;SDS_P2;PMS_P1;PMS_P2;Temp;Humidity;BMP_temperature;BMP_pressure;BME280_temperature;BME280_humidity;BME280_pressure;Samples;Min_cycle;Max_cycle;Signal;HPM_P1;HPM_P2
2023/01/12 00:01:39;;;;;;;23.50;3.05;;;6.70;99.90;;;;;;5001631;28;20040;-64
2023/01/12 00:04:05;;;;;;;23.05;2.83;;;6.70;99.90;;;;;;5037868;28;20048;-63
2023/01/12 00:06:32;;;;;;;13.50;1.25;;;6.90;99.90;;;;;;4999847;28;20437;-64
2023/01/12 00:08:58;;;;;;;18.67;2.20;;;6.90;99.90;;;;;;5040451;28;20285;-65
2023/01/12 00:11:24;;;;;;;11.43;1.50;;;6.80;99.90;;;;;;5005800;28;20038;-63
2023/01/12 00:13:49;;;;;;;19.30;1.85;;;6.70;99.90;;;;;;5039130;28;20629;-64
2023/01/12 00:16:33;;;;;;;13.68;1.13;;;6.60;99.90;;;;;;5039061;28;20458;-63
2023/01/12 00:19:19;;;;;;;;;;;6.70;99.90;;;;;;5039729;28;20039;-63
2023/01/12 00:24:33;;;;;;;27.08;2.67;;;6.50;99.90;;;;;;5021355;28;20051;-64
2023/01/12 00:27:00;;;;;;;22.42;2.75;;;6.60;99.90;;;;;;5005873;28;20044;-64
2023/01/12 00:29:27;;;;;;;21.38;2.60;;;6.70;99.90;;;;;;5021640;28;20072;-64
2023/01/12 00:31:54;;;;;;;22.75;2.60;;;6.70;99.90;;;;;;5021246;28;20273;-64
2023/01/12 00:34:20;;;;;;;17.67;2.10;;;6.70;99.90;;;;;;5039668;28;20390;-63
2023/01/12 00:36:46;;;;;;;24.48;2.55;;;6.80;99.90;;;;;;5005370;28;20044;-64
2023/01/12 00:39:13;;;;;;;14.95;1.38;;;7.00;99.90;;;;;;5020910;28;21330;-63
2023/01/12 00:47:09;;;;;;;23.88;2.85;;;7.10;99.90;;;;;;5020335;28;20057;-66
2023/01/12 00:49:36;;;;;;;24.40;2.50;;;7.20;99.90;;;;;;5020162;28;20525;-65
2023/01/12 00:52:03;;;;;;;23.58;3.05;;;7.30;99.90;;;;;;5038846;28;20040;-66
2023/01/12 00:54:28;;;;;;;18.17;2.33;;;7.00;99.90;;;;;;5019942;28;20395;-64
2023/01/12 00:56:54;;;;;;;21.55;2.55;;;7.20;99.90;;;;;;5021123;28;20037;-65
2023/01/12 00:59:20;;;;;;;24.98;2.90;;;6.90;99.90;;;;;;5004299;28;20672;-65
2023/01/12 01:01:45;;;;;;;23.73;2.72;;;7.00;99.90;;;;;;5038650;28;20048;-64
2023/01/12 01:04:11;;;;;;;26.20;2.70;;;7.10;99.90;;;;;;5009731;28;20194;-63
2023/01/12 01:06:37;;;;;;;24.77;2.60;;;7.00;99.90;;;;;;5021032;28;20040;-63
2023/01/12 01:09:03;;;;;;;19.38;2.30;;;7.10;99.90;;;;;;5022174;28;20050;-64
2023/01/12 01:11:29;;;;;;;23.85;2.72;;;7.40;99.90;;;;;;5020901;28;20144;-64
2023/01/12 01:13:55;;;;;;;28.23;3.35;;;7.50;99.90;;;;;;5040019;28;20541;-65
2023/01/12 01:16:20;;;;;;;21.25;2.75;;;7.30;99.90;;;;;;5019618;28;20052;-64
2023/01/12 01:18:46;;;;;;;21.85;2.40;;;7.30;99.90;;;;;;5039191;28;20045;-64
2023/01/12 01:21:13;;;;;;;18.77;2.60;;;7.10;99.90;;;;;;5039703;28;20651;-63
2023/01/12 01:23:40;;;;;;;23.15;2.03;;;7.30;99.90;;;;;;5020086;28;20435;-63
2023/01/12 01:26:12;;;;;;;24.50;2.45;;;7.00;99.90;;;;;;5019069;28;20049;-64
2023/01/12 01:28:39;;;;;;;22.23;2.90;;;7.30;99.90;;;;;;5019574;28;20048;-64
2023/01/12 01:31:06;;;;;;;26.50;3.22;;;7.00;99.90;;;;;;5019636;28;20060;-63
2023/01/12 01:33:32;;;;;;;29.13;3.30;;;6.90;99.90;;;;;;5020784;28;20063;-64
2023/01/12 01:35:58;;;;;;;27.83;2.80;;;7.10;99.90;;;;;;5038693;28;20048;-64
2023/01/12 01:38:24;;;;;;;31.20;3.17;;;7.20;99.90;;;;;;5019934;28;20131;-63
2023/01/12 01:40:49;;;;;;;31.08;3.55;;;7.00;99.90;;;;;;5019330;28;20390;-63
2023/01/12 01:43:18;;;;;;;28.45;3.63;;;7.40;99.90;;;;;;5037914;28;20044;-64
2023/01/12 01:45:48;;;;;;;26.90;3.10;;;7.30;99.90;;;;;;5008815;28;20037;-64
2023/01/12 01:48:16;;;;;;;19.40;2.78;;;7.30;99.90;;;;;;5018973;28;20105;-64
2023/01/12 01:50:56;;;;;;;24.92;3.40;;;7.30;99.90;;;;;;5019214;28;20384;-64
2023/01/12 01:53:26;;;;;;;27.17;2.85;;;7.50;99.90;;;;;;5020232;28;20059;-64
2023/01/12 01:56:02;;;;;;;31.45;3.13;;;7.30;99.90;;;;;;5025902;28;20091;-63
2023/01/12 01:58:36;;;;;;;24.58;2.88;;;7.40;99.90;;;;;;5019347;28;20064;-64
2023/01/12 02:01:02;;;;;;;21.08;2.67;;;7.40;99.90;;;;;;5003288;28;20045;-63
2023/01/12 02:03:29;;;;;;;24.90;2.67;;;7.40;99.90;;;;;;5019770;28;20494;-65
2023/01/12 02:05:56;;;;;;;25.63;2.45;;;7.70;99.90;;;;;;5038931;28;20048;-64
2023/01/12 02:08:34;;;;;;;21.88;3.10;;;7.40;99.90;;;;;;5019520;28;20056;-64
2023/01/12 02:11:00;;;;;;;28.00;2.85;;;7.30;99.90;;;;;;5037797;28;20045;-65
2023/01/12 02:16:24;;;;;;;27.10;3.45;;;7.40;99.90;;;;;;5036988;28;20471;-64
2023/01/12 02:19:20;;;;;;;25.23;2.65;;;7.50;99.90;;;;;;5036860;28;20049;-65
2023/01/12 02:21:51;;;;;;;32.05;3.13;;;7.50;99.90;;;;;;5037839;28;20793;-63
2023/01/12 02:24:38;;;;;;;29.17;3.35;;;7.60;99.90;;;;;;5035027;28;20048;-63
2023/01/12 02:27:36;;;;;;;27.27;3.00;;;7.40;99.90;;;;;;5024549;28;20747;-64
2023/01/12 02:30:26;;;;;;;27.63;3.40;;;7.30;99.90;;;;;;5017074;28;20340;-65
2023/01/12 02:33:22;;;;;;;28.80;3.30;;;7.20;99.90;;;;;;5020032;28;20127;-64
2023/01/12 02:36:02;;;;;;;27.92;3.63;;;7.20;99.90;;;;;;5010767;28;20063;-63
2023/01/12 02:38:46;;;;;;;31.90;3.53;;;7.60;99.90;;;;;;5019289;28;20044;-64
2023/01/12 02:45:08;;;;;;;28.77;3.22;;;7.40;99.90;;;;;;5017657;28;20789;-65
2023/01/12 02:47:53;;;;;;;28.13;3.33;;;7.40;99.90;;;;;;5016472;28;20079;-65
2023/01/12 02:50:43;;;;;;;24.90;2.40;;;7.50;99.90;;;;;;5017895;28;20045;-65
2023/01/12 02:53:23;;;;;;;23.77;2.90;;;7.70;99.90;;;;;;5017217;28;20045;-63
2023/01/12 02:55:49;;;;;;;34.17;4.03;;;7.80;99.90;;;;;;5018840;28;20091;-63
2023/01/12 02:58:19;;;;;;;31.75;3.28;;;8.00;99.90;;;;;;5003040;28;20041;-63
2023/01/12 03:00:48;;;;;;;33.80;4.55;;;7.90;99.90;;;;;;5002070;28;20146;-64
2023/01/12 03:03:15;;;;;;;31.30;3.72;;;7.80;99.90;;;;;;5019589;28;20083;-63
2023/01/12 03:05:42;;;;;;;30.95;3.80;;;7.90;99.90;;;;;;5002990;28;20768;-64
2023/01/12 03:08:13;;;;;;;25.48;2.95;;;7.80;99.90;;;;;;5019516;28;20102;-63
2023/01/12 03:10:52;;;;;;;29.25;3.67;;;7.80;99.90;;;;;;4991621;28;20049;-64
2023/01/12 03:13:19;;;;;;;32.60;3.47;;;7.80;99.90;;;;;;5002698;28;20060;-64
2023/01/12 03:15:48;;;;;;;29.05;4.00;;;7.90;99.90;;;;;;5002730;28;20049;-65
2023/01/12 03:18:40;;;;;;;36.60;4.35;;;7.90;99.90;;;;;;5003632;28;20040;-64
2023/01/12 03:21:14;;;;;;;34.55;3.97;;;7.90;99.90;;;;;;5019112;28;20498;-64
2023/01/12 03:23:53;;;;;;;25.95;3.30;;;7.90;99.90;;;;;;5019286;28;20041;-63
2023/01/12 03:26:24;;;;;;;32.25;3.97;;;8.00;99.90;;;;;;5021719;28;20061;-64
2023/01/12 03:28:55;;;;;;;31.23;3.90;;;8.00;99.90;;;;;;5023770;28;20037;-64
2023/01/12 03:31:22;;;;;;;35.83;4.00;;;7.80;99.90;;;;;;5040655;28;20079;-64
2023/01/12 03:33:47;;;;;;;34.08;3.50;;;7.70;99.90;;;;;;5022638;28;20045;-64
2023/01/12 03:36:31;;;;;;;29.77;4.28;;;8.10;99.90;;;;;;5041169;28;20414;-64
2023/01/12 03:39:12;;;;;;;33.17;4.25;;;8.00;99.90;;;;;;5022368;28;20095;-64
2023/01/12 03:42:03;;;;;;;27.45;3.45;;;8.00;99.90;;;;;;5039931;28;20045;-64
2023/01/12 03:44:44;;;;;;;27.50;3.55;;;8.00;99.90;;;;;;5041017;28;20029;-64
2023/01/12 03:47:23;;;;;;;24.83;3.13;;;7.80;99.90;;;;;;5041085;28;20083;-65
2023/01/12 03:50:12;;;;;;;29.90;3.67;;;7.80;99.90;;;;;;5021843;28;20041;-64
2023/01/12 03:52:40;;;;;;;26.65;3.35;;;8.00;99.90;;;;;;5021914;28;20052;-64
2023/01/12 03:55:09;;;;;;;32.88;4.10;;;8.10;99.90;;;;;;5006058;28;20052;-64
2023/01/12 03:57:36;;;;;;;28.58;3.20;;;8.20;99.90;;;;;;5023074;28;20128;-65
2023/01/12 04:00:04;;;;;;;33.67;4.55;;;7.80;99.90;;;;;;5040331;28;20072;-66
2023/01/12 04:02:29;;;;;;;35.08;5.03;;;7.90;99.90;;;;;;5046982;28;20398;-65
2023/01/12 04:04:55;;;;;;;27.58;4.72;;;8.10;99.90;;;;;;5023125;28;20280;-65
2023/01/12 04:07:22;;;;;;;31.50;4.05;;;7.80;99.90;;;;;;5021876;28;20053;-64
2023/01/12 04:09:48;;;;;;;25.02;4.40;;;7.90;99.90;;;;;;5022795;28;20055;-63
2023/01/12 04:12:13;;;;;;;30.33;4.47;;;7.90;99.90;;;;;;5039741;28;20041;-65
2023/01/12 04:14:41;;;;;;;30.98;4.53;;;8.00;99.90;;;;;;5006430;28;20080;-64
2023/01/12 04:17:09;;;;;;;32.10;4.85;;;7.90;99.90;;;;;;5021456;28;20444;-65
2023/01/12 04:19:35;;;;;;;22.50;3.33;;;8.20;99.90;;;;;;5041276;28;20714;-64
2023/01/12 04:24:45;;;;;;;21.33;2.60;;;8.20;99.90;;;;;;5022351;28;20068;-63
2023/01/12 04:27:11;;;;;;;19.98;2.22;;;8.20;99.90;;;;;;5021879;28;20510;-64
2023/01/12 04:29:37;;;;;;;15.57;2.28;;;8.10;99.90;;;;;;5022798;28;20575;-64
2023/01/12 04:32:03;;;;;;;20.23;2.35;;;8.10;99.90;;;;;;5022803;28;20033;-63
2023/01/12 04:34:29;;;;;;;21.40;3.20;;;8.50;99.90;;;;;;5005362;28;20045;-64
2023/01/12 04:36:55;;;;;;;22.40;3.08;;;8.20;99.90;;;;;;5021861;28;20051;-64
2023/01/12 04:39:20;;;;;;;25.73;3.20;;;8.40;99.90;;;;;;5040610;28;20045;-64
2023/01/12 04:41:46;;;;;;;26.67;3.03;;;8.00;99.90;;;;;;5022210;28;20041;-64
2023/01/12 04:44:12;;;;;;;29.13;3.33;;;8.20;99.90;;;;;;5005845;28;20098;-64
2023/01/12 04:46:37;;;;;;;25.88;3.08;;;8.30;99.90;;;;;;5021705;28;20118;-64
2023/01/12 04:49:03;;;;;;;22.90;3.30;;;8.10;99.90;;;;;;5021797;28;20259;-65
2023/01/12 04:51:29;;;;;;;23.00;3.40;;;8.00;99.90;;;;;;5045686;28;20126;-65
2023/01/12 04:53:55;;;;;;;21.10;3.03;;;8.10;99.90;;;;;;5005699;28;20529;-64
2023/01/12 04:56:21;;;;;;;21.48;3.53;;;8.10;99.90;;;;;;5021023;28;20075;-64
2023/01/12 04:58:47;;;;;;;21.65;2.85;;;7.90;99.90;;;;;;5005667;28;20045;-64
2023/01/12 05:01:17;;;;;;;13.13;1.90;;;8.50;99.90;;;;;;5005848;28;20079;-64
2023/01/12 05:03:43;;;;;;;10.88;1.40;;;8.10;99.90;;;;;;5040190;28;20176;-63
2023/01/12 05:06:09;;;;;;;13.77;1.75;;;8.10;99.90;;;;;;5006601;28;20044;-66
2023/01/12 05:11:20;;;;;;;10.48;1.10;;;8.20;99.90;;;;;;5021125;28;20254;-64
2023/01/12 05:13:46;;;;;;;11.35;1.15;;;8.30;99.90;;;;;;5022288;28;20453;-65
2023/01/12 05:16:14;;;;;;;12.82;1.58;;;8.40;99.90;;;;;;5021168;28;20277;-64
2023/01/12 05:18:41;;;;;;;13.40;1.70;;;8.30;99.90;;;;;;5021121;28;20205;-64
2023/01/12 05:21:07;;;;;;;11.95;1.73;;;8.40;99.90;;;;;;5020865;28;20052;-64
2023/01/12 05:23:33;;;;;;;9.23;0.88;;;8.20;99.90;;;;;;5039752;28;20041;-64
2023/01/12 05:26:00;;;;;;;6.55;0.70;;;7.80;99.90;;;;;;5039680;28;20199;-65
2023/01/12 05:28:27;;;;;;;8.50;0.70;;;8.20;99.90;;;;;;5004179;28;20433;-66
2023/01/12 05:30:53;;;;;;;5.25;0.70;;;7.90;99.90;;;;;;5020246;28;20145;-66
2023/01/12 05:33:19;;;;;;;5.70;0.75;;;8.40;99.90;;;;;;5021052;28;20032;-64
2023/01/12 05:35:45;;;;;;;9.02;1.30;;;7.90;99.90;;;;;;5022407;28;20409;-66
2023/01/12 05:38:11;;;;;;;5.07;0.50;;;7.90;99.90;;;;;;5037555;28;20116;-66
2023/01/12 05:40:37;;;;;;;6.25;0.63;;;8.10;99.90;;;;;;5002400;28;20083;-65
2023/01/12 05:45:47;;;;;;;6.47;0.70;;;7.90;99.90;;;;;;5019795;28;20575;-66
2023/01/12 05:48:13;;;;;;;3.53;0.63;;;7.90;99.90;;;;;;5020280;28;20140;-66
2023/01/12 05:50:38;;;;;;;3.80;0.47;;;8.30;99.90;;;;;;5038284;28;20383;-65
2023/01/12 05:53:04;;;;;;;4.50;0.80;;;7.80;99.90;;;;;;5019963;28;20368;-66
2023/01/12 05:55:30;;;;;;;6.90;1.00;;;8.20;99.90;;;;;;5043554;28;20048;-65
2023/01/12 05:57:57;;;;;;;5.50;0.70;;;8.30;99.90;;;;;;5002206;28;20075;-66
2023/01/12 06:00:23;;;;;;;4.95;0.57;;;7.70;99.90;;;;;;5039147;28;20095;-67
2023/01/12 06:02:49;;;;;;;4.40;0.80;;;7.90;99.90;;;;;;5002555;28;20510;-66
2023/01/12 06:05:14;;;;;;;3.40;0.88;;;8.10;99.90;;;;;;5020024;28;20040;-66
2023/01/12 06:07:41;;;;;;;4.63;0.90;;;7.70;99.90;;;;;;5019814;28;20040;-67
2023/01/12 06:10:08;;;;;;;6.72;0.90;;;7.80;99.90;;;;;;5018813;28;20053;-66
2023/01/12 06:15:17;;;;;;;4.18;0.40;;;8.20;99.90;;;;;;5021258;28;20530;-66
2023/01/12 06:17:43;;;;;;;3.72;0.50;;;8.00;99.90;;;;;;5020702;28;20546;-66
2023/01/12 06:20:13;;;;;;;4.13;0.50;;;7.80;99.90;;;;;;5001929;28;20044;-67
2023/01/12 06:22:39;;;;;;;3.97;0.50;;;8.40;99.90;;;;;;5019212;28;20312;-66
2023/01/12 06:25:05;;;;;;;4.68;0.70;;;8.20;99.90;;;;;;5002503;28;20049;-66
2023/01/12 06:27:34;;;;;;;3.13;0.50;;;7.70;99.90;;;;;;5004363;28;20045;-66
2023/01/12 06:29:59;;;;;;;3.30;0.63;;;7.90;99.90;;;;;;5012720;28;20056;-65
2023/01/12 06:32:27;;;;;;;2.75;0.50;;;7.70;99.90;;;;;;5035257;28;20036;-65
2023/01/12 06:34:53;;;;;;;4.45;0.60;;;7.80;99.90;;;;;;5019370;28;20394;-65
2023/01/12 06:37:18;;;;;;;2.85;0.45;;;7.70;99.90;;;;;;5009980;28;20049;-66
2023/01/12 06:39:44;;;;;;;4.25;0.50;;;8.10;99.90;;;;;;5020696;28;20411;-65
2023/01/12 06:42:28;;;;;;;4.32;0.45;;;8.10;99.90;;;;;;4988481;28;20452;-66
2023/01/12 06:44:55;;;;;;;3.95;0.40;;;8.00;99.90;;;;;;5018369;28;20036;-65
2023/01/12 06:47:21;;;;;;;4.75;0.52;;;7.70;99.90;;;;;;5035675;28;20049;-66
2023/01/12 06:49:47;;;;;;;2.15;0.43;;;8.00;99.90;;;;;;5002887;28;20045;-65
2023/01/12 06:52:13;;;;;;;2.15;0.38;;;8.40;99.90;;;;;;5016523;28;20059;-66
2023/01/12 06:54:38;;;;;;;2.70;0.50;;;8.00;99.90;;;;;;4992626;28;20040;-66
2023/01/12 06:57:04;;;;;;;1.40;0.40;;;8.20;99.90;;;;;;5014499;28;20041;-66
2023/01/12 06:59:29;;;;;;;1.65;0.20;;;8.40;99.90;;;;;;5021481;28;20542;-66
2023/01/12 07:01:55;;;;;;;2.17;0.30;;;8.20;99.90;;;;;;4992080;28;20395;-65
2023/01/12 07:04:21;;;;;;;2.53;0.30;;;8.30;99.90;;;;;;5007518;28;20076;-66
2023/01/12 07:06:47;;;;;;;1.45;0.30;;;8.10;99.90;;;;;;5022283;28;20354;-64
2023/01/12 07:09:13;;;;;;;2.22;0.20;;;8.10;99.90;;;;;;5042096;28;20075;-66
2023/01/12 07:11:38;;;;;;;2.72;0.25;;;8.20;99.90;;;;;;5025186;28;20037;-66
2023/01/12 07:14:04;;;;;;;1.35;0.13;;;8.40;99.90;;;;;;5040290;28;20319;-65
2023/01/12 07:16:30;;;;;;;1.90;0.30;;;8.30;99.90;;;;;;5023892;28;20573;-65
2023/01/12 07:18:55;;;;;;;0.73;0.30;;;8.90;99.90;;;;;;5024803;28;20390;-65
2023/01/12 07:21:21;;;;;;;1.35;0.40;;;8.30;99.90;;;;;;4995985;28;20506;-65
2023/01/12 07:23:47;;;;;;;0.88;0.20;;;8.60;99.90;;;;;;5042161;28;20878;-66
2023/01/12 07:26:13;;;;;;;1.90;0.30;;;8.50;99.90;;;;;;5023691;28;20061;-66
2023/01/12 07:28:38;;;;;;;3.30;0.30;;;8.90;99.90;;;;;;5024470;28;20053;-66
2023/01/12 07:31:05;;;;;;;0.93;0.40;;;8.50;99.90;;;;;;5043705;28;20100;-67
2023/01/12 07:33:33;;;;;;;3.10;0.60;;;8.50;99.90;;;;;;5042245;28;20219;-66
2023/01/12 07:36:00;;;;;;;3.90;1.00;;;9.20;99.90;;;;;;5025316;28;20036;-66
2023/01/12 07:38:27;;;;;;;8.00;1.27;;;8.90;99.90;;;;;;5007673;28;20506;-65
2023/01/12 07:40:52;;;;;;;5.57;1.60;;;9.40;99.90;;;;;;5041172;28;20106;-66
2023/01/12 07:43:18;;;;;;;6.55;2.17;;;8.90;99.90;;;;;;5018363;28;20041;-67
2023/01/12 07:45:44;;;;;;;8.02;2.38;;;9.50;99.90;;;;;;5022371;28;20045;-66
2023/01/12 07:48:10;;;;;;;8.68;1.85;;;9.30;99.90;;;;;;5020244;28;20445;-65
2023/01/12 07:50:36;;;;;;;4.68;1.15;;;9.00;99.90;;;;;;5020915;28;20049;-65
2023/01/12 07:53:02;;;;;;;8.43;1.90;;;9.60;99.90;;;;;;5036893;28;20143;-67
2023/01/12 07:55:30;;;;;;;5.80;1.83;;;9.00;99.90;;;;;;5011816;28;20041;-66
2023/01/12 07:57:58;;;;;;;6.63;1.90;;;9.70;99.90;;;;;;5039145;28;20037;-66
2023/01/12 08:00:25;;;;;;;5.65;1.42;;;9.20;99.90;;;;;;5022410;28;20037;-66
2023/01/12 08:02:52;;;;;;;10.95;2.20;;;9.70;99.90;;;;;;5040153;28;20087;-65
2023/01/12 08:05:19;;;;;;;13.82;2.25;;;9.80;99.90;;;;;;5022146;28;20205;-65
2023/01/12 08:07:45;;;;;;;12.93;1.75;;;9.70;99.90;;;;;;5047211;28;20084;-65
2023/01/12 08:10:12;;;;;;;15.45;2.03;;;9.30;99.90;;;;;;5021143;28;20132;-66
2023/01/12 08:12:38;;;;;;;12.20;1.67;;;9.60;99.90;;;;;;5038041;28;20052;-66
2023/01/12 08:15:04;;;;;;;12.85;1.83;;;9.80;99.90;;;;;;5038679;28;20040;-66
2023/01/12 08:17:36;;;;;;;13.50;1.48;;;10.00;99.90;;;;;;5020332;28;20037;-66
2023/01/12 08:20:07;;;;;;;19.42;3.08;;;9.60;99.90;;;;;;5020958;28;20052;-66
2023/01/12 08:22:38;;;;;;;23.77;2.78;;;10.00;99.90;;;;;;5016547;28;20068;-66
2023/01/12 08:25:17;;;;;;;17.75;1.95;;;10.20;99.90;;;;;;5038377;28;20132;-67
2023/01/12 08:27:46;;;;;;;20.55;2.60;;;10.20;99.90;;;;;;5039463;28;20049;-65
2023/01/12 08:30:15;;;;;;;20.00;2.33;;;10.20;99.90;;;;;;5037212;28;20054;-65
2023/01/12 08:32:41;;;;;;;15.98;2.33;;;10.30;99.90;;;;;;5037720;28;20094;-67
2023/01/12 08:35:07;;;;;;;27.13;2.85;;;9.80;99.90;;;;;;5019477;28;20703;-67
2023/01/12 08:37:34;;;;;;;21.63;2.45;;;10.30;99.90;;;;;;5023033;28;20205;-67
2023/01/12 08:40:00;;;;;;;15.77;1.77;;;10.30;99.90;;;;;;5040090;28;20284;-67
2023/01/12 08:42:29;;;;;;;22.90;2.45;;;10.10;99.90;;;;;;5039967;28;20029;-68
2023/01/12 08:44:55;;;;;;;21.00;3.00;;;10.40;99.90;;;;;;5019040;28;20079;-66
2023/01/12 08:47:25;;;;;;;16.67;1.88;;;10.30;99.90;;;;;;5039461;28;20474;-66
2023/01/12 08:49:52;;;;;;;20.67;2.58;;;10.10;99.90;;;;;;4999535;28;20052;-66
2023/01/12 08:52:18;;;;;;;18.85;2.88;;;10.40;99.90;;;;;;5019674;28;20122;-66
2023/01/12 08:54:44;;;;;;;16.17;1.92;;;10.10;99.90;;;;;;5021059;28;21434;-67
2023/01/12 08:57:10;;;;;;;20.10;2.03;;;10.10;99.90;;;;;;5020294;28;20041;-67
2023/01/12 08:59:36;;;;;;;12.55;1.88;;;10.10;99.90;;;;;;5019590;28;20055;-67
2023/01/12 09:02:01;;;;;;;20.27;2.00;;;10.30;99.90;;;;;;5020929;28;20053;-67
2023/01/12 09:04:27;;;;;;;15.48;1.58;;;10.40;99.90;;;;;;5003955;28;20497;-67
2023/01/12 09:06:53;;;;;;;13.18;1.77;;;10.40;99.90;;;;;;4987361;28;20204;-68
2023/01/12 09:09:20;;;;;;;15.30;1.20;;;10.20;99.90;;;;;;5022137;28;20052;-67
2023/01/12 09:11:47;;;;;;;13.82;1.60;;;10.60;99.90;;;;;;5039742;28;20110;-67
2023/01/12 09:14:14;;;;;;;17.23;1.75;;;10.10;99.90;;;;;;5039412;28;20036;-66
2023/01/12 09:16:40;;;;;;;12.48;1.35;;;10.10;99.90;;;;;;5019458;28;20045;-66
2023/01/12 09:19:06;;;;;;;18.73;2.20;;;10.10;99.90;;;;;;5019833;28;20545;-66
2023/01/12 09:21:35;;;;;;;16.00;1.33;;;10.40;99.90;;;;;;5020168;28;20314;-66
2023/01/12 09:24:01;;;;;;;14.80;1.38;;;10.20;99.90;;;;;;5019297;28;20152;-67
2023/01/12 09:26:33;;;;;;;17.48;1.83;;;10.70;99.90;;;;;;5018147;28;20168;-67
2023/01/12 09:29:00;;;;;;;14.43;1.50;;;10.20;99.90;;;;;;5019592;28;20060;-66
2023/01/12 09:31:27;;;;;;;9.05;1.15;;;10.40;99.90;;;;;;5036266;28;20064;-66
2023/01/12 09:33:53;;;;;;;13.50;1.75;;;10.60;99.90;;;;;;5035459;28;20340;-67
2023/01/12 09:36:25;;;;;;;14.73;1.35;;;10.00;99.90;;;;;;5020347;28;20262;-66
2023/01/12 09:38:51;;;;;;;13.68;1.15;;;10.60;99.90;;;;;;5037113;28;20524;-65
2023/01/12 09:47:26;;;;;;;13.18;1.30;;;10.20;99.90;;;;;;5016588;28;20656;-68
2023/01/12 09:50:04;;;;;;;12.95;1.38;;;10.60;99.90;;;;;;5036587;28;20420;-67
2023/01/12 09:52:38;;;;;;;8.70;1.05;;;10.00;99.90;;;;;;5035799;28;20661;-68
2023/01/12 09:55:09;;;;;;;13.73;1.58;;;10.10;99.90;;;;;;5038921;28;20033;-69
2023/01/12 09:58:05;;;;;;;15.90;1.83;;;10.20;99.90;;;;;;5036115;28;20113;-67
2023/01/12 10:00:31;;;;;;;15.90;1.63;;;10.90;99.90;;;;;;5000917;28;20386;-66
2023/01/12 10:03:09;;;;;;;19.17;1.63;;;10.00;99.90;;;;;;5019816;28;20025;-66
2023/01/12 10:05:49;;;;;;;14.30;1.35;;;10.80;99.90;;;;;;5018127;28;20576;-66
2023/01/12 10:08:31;;;;;;;10.18;1.00;;;10.00;99.90;;;;;;5019009;28;20459;-67
2023/01/12 10:11:10;;;;;;;12.65;1.52;;;10.80;99.90;;;;;;5009559;28;20148;-67
2023/01/12 10:14:07;;;;;;;12.70;1.05;;;10.80;99.90;;;;;;5036104;28;20051;-67
2023/01/12 10:16:45;;;;;;;13.45;1.08;;;10.10;99.90;;;;;;5010017;28;20548;-68
2023/01/12 10:19:37;;;;;;;8.00;1.08;;;10.80;99.90;;;;;;5004261;28;20457;-69
2023/01/12 10:22:37;;;;;;;12.55;1.15;;;10.20;99.90;;;;;;5016368;28;20128;-69
2023/01/12 10:25:26;;;;;;;12.38;1.25;;;10.70;99.90;;;;;;5019174;28;20387;-70
2023/01/12 10:27:55;;;;;;;11.82;1.20;;;10.20;99.90;;;;;;5006165;28;20049;-70
2023/01/12 10:30:27;;;;;;;10.45;1.50;;;10.10;99.90;;;;;;5017681;28;20041;-69
2023/01/12 10:32:53;;;;;;;12.52;1.65;;;10.50;99.90;;;;;;5024592;28;20174;-68
2023/01/12 10:35:22;;;;;;;11.00;0.80;;;10.40;99.90;;;;;;5001387;28;20128;-69
2023/01/12 10:37:55;;;;;;;11.10;1.25;;;10.90;99.90;;;;;;5019333;28;20053;-66
2023/01/12 10:40:27;;;;;;;14.57;1.65;;;10.50;99.90;;;;;;5016449;28;20048;-67
2023/01/12 10:43:22;;;;;;;8.15;0.80;;;10.70;99.90;;;;;;5033664;28;20615;-67
2023/01/12 10:46:03;;;;;;;14.38;1.55;;;10.30;99.90;;;;;;5021044;28;20095;-66
2023/01/12 10:48:29;;;;;;;10.75;1.23;;;10.50;99.90;;;;;;5033747;28;20044;-66
2023/01/12 10:51:01;;;;;;;13.38;1.10;;;11.00;99.90;;;;;;5001102;28;20106;-69
2023/01/12 10:53:34;;;;;;;13.93;1.17;;;11.00;99.90;;;;;;5002298;28;20063;-69
2023/01/12 10:56:09;;;;;;;12.63;1.35;;;10.80;99.90;;;;;;5019797;28;20143;-69
2023/01/12 10:58:35;;;;;;;13.18;1.48;;;10.60;99.90;;;;;;5017780;28;20152;-67
2023/01/12 11:01:01;;;;;;;10.70;0.80;;;10.50;99.90;;;;;;5017472;28;20195;-68
2023/01/12 11:03:33;;;;;;;8.07;0.85;;;10.80;99.90;;;;;;5007751;28;20517;-69
2023/01/12 11:06:17;;;;;;;11.05;0.95;;;10.90;99.90;;;;;;5017919;28;20040;-68
2023/01/12 11:08:43;;;;;;;10.18;1.25;;;10.70;99.90;;;;;;5001059;28;20040;-69
2023/01/12 11:11:29;;;;;;;7.63;0.75;;;10.70;99.90;;;;;;5002322;28;20045;-69
2023/01/12 11:13:58;;;;;;;14.50;1.35;;;11.00;99.90;;;;;;5017331;28;20048;-68
2023/01/12 11:16:42;;;;;;;14.18;1.70;;;11.30;99.90;;;;;;5017103;28;20483;-68
2023/01/12 11:19:22;;;;;;;12.80;1.75;;;11.30;99.90;;;;;;5015424;28;20045;-69
2023/01/12 11:21:52;;;;;;;14.70;1.88;;;11.00;99.90;;;;;;5008267;28;20064;-68
2023/01/12 11:24:40;;;;;;;14.07;1.48;;;10.90;99.90;;;;;;5034255;28;20430;-69
2023/01/12 11:27:16;;;;;;;15.07;1.40;;;11.00;99.90;;;;;;5036480;28;20157;-71
2023/01/12 11:29:44;;;;;;;11.27;1.30;;;11.00;99.90;;;;;;5015905;28;20514;-70
2023/01/12 11:32:14;;;;;;;9.00;1.10;;;10.90;99.90;;;;;;4999767;28;20045;-69
2023/01/12 11:34:50;;;;;;;15.55;1.50;;;11.20;99.90;;;;;;5014490;28;20100;-69
2023/01/12 11:37:17;;;;;;;13.55;1.77;;;11.00;99.90;;;;;;5035669;28;20075;-69
2023/01/12 11:39:44;;;;;;;12.65;1.02;;;10.90;99.90;;;;;;5022887;28;20051;-69
2023/01/12 11:45:22;;;;;;;14.50;1.65;;;10.90;99.90;;;;;;5038116;28;20574;-69
2023/01/12 11:47:58;;;;;;;19.70;1.48;;;10.90;99.90;;;;;;5022111;28;20063;-68
2023/01/12 11:50:32;;;;;;;14.23;1.40;;;10.90;99.90;;;;;;5022984;28;20162;-68
2023/01/12 11:52:58;;;;;;;12.50;1.23;;;11.00;99.90;;;;;;5023284;28;20045;-69
2023/01/12 11:55:58;;;;;;;11.07;0.70;;;10.70;99.90;;;;;;5020963;28;20037;-67
2023/01/12 11:58:50;;;;;;;13.85;1.60;;;10.80;99.90;;;;;;5020902;28;20048;-69
2023/01/12 12:01:52;;;;;;;10.82;0.90;;;10.70;99.90;;;;;;5009939;28;20683;-68
2023/01/12 12:04:42;;;;;;;12.82;1.00;;;10.80;99.90;;;;;;5019770;28;20526;-68
2023/01/12 12:07:14;;;;;;;16.33;1.67;;;10.70;99.90;;;;;;5020774;28;20041;-69
2023/01/12 12:09:43;;;;;;;11.65;0.98;;;10.90;99.90;;;;;;5039156;28;20041;-68
2023/01/12 12:12:21;;;;;;;11.75;1.10;;;10.30;99.90;;;;;;5017712;28;20053;-68
2023/01/12 12:15:21;;;;;;;11.32;1.13;;;10.80;99.90;;;;;;5036925;28;20119;-70
2023/01/12 12:17:59;;;;;;;12.18;1.00;;;10.70;99.90;;;;;;5017736;28;20737;-68
2023/01/12 12:21:00;;;;;;;10.48;0.70;;;10.80;99.90;;;;;;5019741;28;20036;-68
2023/01/12 12:24:00;;;;;;;11.68;0.70;;;10.50;99.90;;;;;;4993709;28;20044;-68
2023/01/12 12:26:57;;;;;;;9.98;0.65;;;9.90;99.90;;;;;;5002037;28;20135;-68
2023/01/12 12:29:44;;;;;;;9.73;0.75;;;9.90;99.90;;;;;;5018460;28;20049;-68
2023/01/12 12:32:35;;;;;;;9.27;0.95;;;10.20;99.90;;;;;;5038161;28;20037;-70
2023/01/12 12:35:23;;;;;;;11.43;0.85;;;9.80;99.90;;;;;;5019731;28;20306;-69
2023/01/12 12:38:21;;;;;;;10.10;0.93;;;10.30;99.90;;;;;;5016286;28;20040;-69
2023/01/12 12:46:59;;;;;;;15.50;1.08;;;10.10;99.90;;;;;;5019165;28;20116;-68
2023/01/12 12:49:31;;;;;;;12.35;1.40;;;10.20;99.90;;;;;;5018242;28;20120;-68
2023/01/12 12:51:59;;;;;;;15.68;1.10;;;11.20;99.90;;;;;;5019986;28;20041;-67
2023/01/12 12:54:26;;;;;;;12.95;1.35;;;11.00;99.90;;;;;;5018220;28;20499;-67
2023/01/12 12:56:52;;;;;;;15.65;1.25;;;11.20;99.90;;;;;;5004094;28;20124;-68
2023/01/12 12:59:30;;;;;;;11.45;1.30;;;10.70;99.90;;;;;;5020698;28;20051;-67
2023/01/12 13:01:58;;;;;;;17.50;1.40;;;10.60;99.90;;;;;;5019974;28;20037;-68
2023/01/12 13:04:42;;;;;;;11.15;1.08;;;10.50;99.90;;;;;;5004307;28;20143;-68
2023/01/12 13:07:15;;;;;;;12.50;1.48;;;10.50;99.90;;;;;;5021442;28;20126;-68
2023/01/12 13:09:42;;;;;;;12.73;0.80;;;10.50;99.90;;;;;;5022643;28;20090;-68
2023/01/12 13:12:16;;;;;;;16.60;1.30;;;10.70;99.90;;;;;;5005764;28;21362;-68
2023/01/12 13:14:42;;;;;;;10.20;1.30;;;11.10;99.90;;;;;;5022023;28;20037;-69
2023/01/12 13:17:20;;;;;;;14.60;1.35;;;10.50;99.90;;;;;;5040476;28;20489;-69
2023/01/12 13:19:49;;;;;;;12.30;0.95;;;11.10;99.90;;;;;;5048982;28;20578;-69
2023/01/12 13:22:31;;;;;;;7.00;0.60;;;10.80;99.90;;;;;;5039832;28;20056;-69
2023/01/12 13:25:09;;;;;;;17.08;1.65;;;11.00;99.90;;;;;;5008393;28;20170;-68
2023/01/12 13:27:51;;;;;;;10.98;0.80;;;11.00;99.90;;;;;;5021434;28;20119;-69
2023/01/12 13:30:25;;;;;;;18.15;1.45;;;11.00;99.90;;;;;;5038922;28;20067;-69
2023/01/12 13:32:54;;;;;;;15.05;1.70;;;10.70;99.90;;;;;;5020676;28;20037;-69
2023/01/12 13:35:32;;;;;;;19.65;2.33;;;10.40;99.90;;;;;;5010366;28;20041;-68
2023/01/12 13:38:10;;;;;;;19.98;2.13;;;10.60;99.90;;;;;;5003690;28;20240;-68
2023/01/12 13:40:37;;;;;;;17.20;1.85;;;10.70;99.90;;;;;;5039292;28;20404;-68
2023/01/12 13:43:22;;;;;;;15.57;1.90;;;11.00;99.90;;;;;;5039471;28;20041;-68
2023/01/12 13:46:10;;;;;;;14.88;1.50;;;10.30;99.90;;;;;;5020527;28;20463;-68
2023/01/12 13:48:40;;;;;;;20.27;2.00;;;10.30;99.90;;;;;;5023296;28;20311;-67